Time;durP1;ratioP1;P1;durP2;ratioP2;P2;SDS_P1;SDS_P2;PMS_P1;PMS_P2;Temp;Humidity;BMP_temperature;BMP_pressure;BME280_temperature;BME280_humidity;BME280_pressure;Samples;Min_cycle;Max_cycle;Signal;HPM_P1;HPM_P2
2023/03/20 00:01:40;;;;;;;;;10.00;9.25;;;;;11.44;48.12;101674.84;5087330;28;45712;-66
2023/03/20 00:04:05;;;;;;;;;9.25;8.25;;;;;11.09;48.44;101621.75;5081287;27;44947;-66
2023/03/20 00:06:31;;;;;;;;;10.00;9.25;;;;;11.42;47.99;101678.31;5086331;28;45819;-66
2023/03/20 00:08:56;;;;;;;;;6.75;5.50;;;;;11.44;48.41;101681.97;5082112;27;45207;-66
2023/03/20 00:11:31;;;;;;;;;9.75;8.75;;;;;11.41;48.21;101688.09;5087362;28;45436;-66
2023/03/20 00:14:07;;;;;;;;;13.50;6.50;;;;;11.20;48.58;101661.47;5080953;27;45221;-66
2023/03/20 00:16:37;;;;;;;;;7.75;7.00;;;;;11.09;48.82;101641.41;5080784;28;45234;-65
2023/03/20 00:19:03;;;;;;;;;9.00;8.25;;;;;11.34;48.77;101696.75;5082037;27;45314;-66
2023/03/20 00:21:30;;;;;;;;;9.00;6.50;;;;;11.13;48.69;101663.81;5077176;28;44996;-67
2023/03/20 00:23:55;;;;;;;;;10.25;8.00;;;;;11.24;48.60;101697.25;5082940;27;45349;-65
2023/03/20 00:26:25;;;;;;;;;8.50;6.00;;;;;11.14;48.87;101695.97;5073325;28;53291;-66
2023/03/20 00:28:51;;;;;;;;;8.00;5.75;;;;;11.16;49.02;101693.38;5087643;27;45182;-66
2023/03/20 00:31:39;;;;;;;;;9.50;6.50;;;;;11.18;49.06;101697.91;5084924;27;45117;-65
2023/03/20 00:34:11;;;;;;;;;11.00;7.75;;;;;11.19;48.70;101707.75;5076987;27;45344;-66
2023/03/20 00:36:36;;;;;;;;;9.00;7.50;;;;;11.21;49.30;101692.69;5084183;28;46681;-66
2023/03/20 00:39:01;;;;;;;;;6.00;6.00;;;;;11.24;48.72;101697.25;5082525;27;45196;-65
2023/03/20 00:41:43;;;;;;;;;7.50;7.00;;;;;11.21;48.93;101684.66;5080107;28;45338;-66
2023/03/20 00:44:20;;;;;;;;;8.00;6.00;;;;;11.29;49.31;101692.09;5078983;28;45009;-66
2023/03/20 00:46:50;;;;;;;;;9.25;5.00;;;;;11.21;49.00;101678.41;5074842;28;45311;-66
2023/03/20 00:49:16;;;;;;;;;9.00;7.00;;;;;11.30;48.58;101686.78;5077197;28;44921;-66
2023/03/20 00:51:41;;;;;;;;;6.50;6.50;;;;;11.29;48.79;101695.66;5082093;27;45157;-65
2023/03/20 00:54:13;;;;;;;;;10.00;8.00;;;;;11.26;48.93;101684.84;5088272;27;45177;-66
2023/03/20 00:56:46;;;;;;;;;7.75;7.00;;;;;11.23;49.64;101690.06;5088309;27;45264;-66
2023/03/20 00:59:18;;;;;;;;;7.00;7.00;;;;;11.20;49.71;101693.56;5081378;28;45425;-65
2023/03/20 01:01:44;;;;;;;;;10.50;8.50;;;;;11.25;48.98;101696.38;5087025;28;45030;-65
2023/03/20 01:04:20;;;;;;;;;7.00;6.25;;;;;11.23;48.94;101693.66;5088727;28;45058;-66
2023/03/20 01:06:46;;;;;;;;;7.25;7.25;;;;;11.12;49.10;101662.91;5089489;27;45248;-66
2023/03/20 01:09:11;;;;;;;;;10.75;8.00;;;;;11.02;49.59;101652.69;5078761;27;45235;-66
2023/03/20 01:11:38;;;;;;;;;8.25;8.00;;;;;11.11;48.63;101677.13;5087180;28;45283;-66
2023/03/20 01:14:05;;;;;;;;;10.00;7.25;;;;;11.16;49.30;101690.69;5082948;27;45115;-65
2023/03/20 01:16:30;;;;;;;;;10.00;7.50;;;;;11.16;49.79;101688.03;5091418;27;45124;-65
2023/03/20 01:18:56;;;;;;;;;8.50;7.25;;;;;11.10;49.44;101686.00;5083275;28;45019;-66
2023/03/20 01:21:22;;;;;;;;;8.75;8.75;;;;;11.14;49.92;101692.41;5082494;27;45128;-66
2023/03/20 01:23:48;;;;;;;;;7.75;6.75;;;;;11.13;49.94;101696.81;5082486;28;45118;-65
2023/03/20 01:26:53;;;;;;;;;14.00;8.00;;;;;11.10;50.21;101704.72;5088988;28;45716;-65
2023/03/20 01:29:21;;;;;;;;;11.00;9.00;;;;;11.06;50.19;101702.78;5007830;28;45088;-66
2023/03/20 01:31:47;;;;;;;;;8.75;7.75;;;;;11.02;49.62;101695.47;5069656;28;45301;-65
2023/03/20 01:34:16;;;;;;;;;14.00;8.75;;;;;11.07;49.99;101702.84;5091368;27;45173;-66
2023/03/20 01:36:50;;;;;;;;;9.00;6.50;;;;;10.98;49.89;101681.09;5091890;28;45568;-65
2023/03/20 01:39:16;;;;;;;;;9.00;8.25;;;;;11.09;50.16;101699.31;5092099;28;45042;-65
2023/03/20 01:41:42;;;;;;;;;9.25;8.00;;;;;11.09;49.69;101700.25;5081511;28;44969;-65
2023/03/20 01:44:27;;;;;;;;;9.50;9.50;;;;;10.96;49.59;101672.09;5082763;27;45114;-65
2023/03/20 01:46:54;;;;;;;;;11.75;8.25;;;;;10.98;49.71;101678.41;5076500;27;45647;-65
2023/03/20 01:49:19;;;;;;;;;10.00;8.00;;;;;11.04;49.66;101692.03;5085618;28;45152;-65
2023/03/20 01:51:45;;;;;;;;;11.25;8.75;;;;;11.03;50.32;101689.28;5085568;27;45157;-66
2023/03/20 01:54:16;;;;;;;;;9.50;7.75;;;;;11.06;50.14;101692.09;5083052;27;45263;-65
2023/03/20 01:56:48;;;;;;;;;9.25;8.75;;;;;11.06;50.45;101684.06;5086017;28;45469;-66
2023/03/20 01:59:22;;;;;;;;;10.25;9.00;;;;;11.05;49.85;101685.84;5079635;27;45186;-66
2023/03/20 02:01:48;;;;;;;;;12.50;8.00;;;;;11.06;50.36;101689.41;5081368;27;45072;-65
2023/03/20 02:04:15;;;;;;;;;12.00;10.50;;;;;11.05;50.28;101691.19;5078784;28;45053;-65
2023/03/20 02:06:43;;;;;;;;;15.75;10.00;;;;;11.03;50.05;101697.31;5077988;28;45319;-65
2023/03/20 02:09:10;;;;;;;;;7.25;7.00;;;;;11.01;50.43;101688.31;5078251;27;45149;-66
2023/03/20 02:11:36;;;;;;;;;10.25;9.00;;;;;10.97;50.44;101681.94;5073607;28;45262;-66
2023/03/20 02:14:03;;;;;;;;;9.50;7.50;;;;;10.92;50.44;101671.91;5076348;27;45004;-66
2023/03/20 02:16:28;;;;;;;;;8.75;8.00;;;;;10.91;51.06;101676.34;5080639;27;45557;-66
2023/03/20 02:18:57;;;;;;;;;11.00;9.00;;;;;10.94;50.29;101672.88;5075460;28;45193;-65
2023/03/20 02:21:41;;;;;;;;;11.00;8.00;;;;;10.91;50.69;101676.34;5077656;28;45534;-65
2023/03/20 02:24:51;;;;;;;;;15.75;9.25;;;;;10.92;49.88;101674.56;5077324;28;45132;-66
2023/03/20 02:27:41;;;;;;;;;7.75;6.50;;;;;10.87;50.35;101678.00;5055513;28;46062;-66
2023/03/20 02:30:47;;;;;;;;;10.00;7.00;;;;;10.89;50.34;101672.72;5079803;28;45120;-65
2023/03/20 02:33:49;;;;;;;;;9.25;8.50;;;;;10.86;49.87;101673.50;5075479;27;45306;-65
2023/03/20 02:36:24;;;;;;;;;8.25;8.00;;;;;10.83;50.03;101676.03;5074889;28;44927;-66
2023/03/20 02:39:19;;;;;;;;;7.25;6.25;;;;;10.85;50.09;101676.09;5079439;28;45769;-65
2023/03/20 02:42:04;;;;;;;;;10.50;5.00;;;;;10.89;50.16;101670.03;5080593;28;45175;-66
2023/03/20 02:44:33;;;;;;;;;8.50;6.75;;;;;10.81;50.87;101653.69;5082511;28;45095;-65
2023/03/20 02:47:10;;;;;;;;;10.00;8.75;;;;;10.84;50.61;101659.16;5079289;28;45206;-67
2023/03/20 02:50:01;;;;;;;;;6.50;6.50;;;;;10.82;50.12;101646.56;5083850;27;45525;-66
2023/03/20 02:52:39;;;;;;;;;8.50;6.00;;;;;10.96;50.46;101663.16;5079619;28;45248;-66
2023/03/20 02:55:26;;;;;;;;;5.25;5.00;;;;;10.95;50.57;101664.00;5076498;28;45080;-65
2023/03/20 02:58:07;;;;;;;;;8.25;6.50;;;;;10.92;49.96;101651.41;5079042;27;46385;-66
2023/03/20 03:00:40;;;;;;;;;7.00;7.00;;;;;10.80;50.29;101632.22;5080964;28;45311;-65
2023/03/20 03:03:59;;;;;;;;;3.50;3.00;;;;;10.94;50.50;101656.81;5084922;27;45230;-65
2023/03/20 03:06:30;;;;;;;;;6.00;4.50;;;;;10.91;50.24;101665.66;5047707;28;45191;-65
2023/03/20 03:09:11;;;;;;;;;7.75;6.25;;;;;10.87;50.31;101663.69;5084757;27;45178;-65
2023/03/20 03:11:42;;;;;;;;;5.50;4.75;;;;;10.85;50.29;101654.72;5079480;28;45676;-66
2023/03/20 03:14:16;;;;;;;;;8.50;7.50;;;;;10.86;50.22;101649.44;5078343;28;45126;-66
2023/03/20 03:16:45;;;;;;;;;9.00;5.25;;;;;10.86;50.77;101657.44;5080402;28;44968;-66
2023/03/20 03:19:22;;;;;;;;;10.25;8.25;;;;;10.83;51.28;101653.75;5074631;28;45255;-66
2023/03/20 03:21:48;;;;;;;;;12.75;11.75;;;;;10.83;51.58;101664.44;5080282;27;46001;-66
2023/03/20 03:24:33;;;;;;;;;19.75;14.50;;;;;10.85;52.17;101665.41;5082637;28;45150;-65
2023/03/20 03:27:02;;;;;;;;;19.25;13.75;;;;;10.86;51.92;101659.22;5081988;27;45472;-65
2023/03/20 03:29:32;;;;;;;;;14.00;11.75;;;;;10.80;52.51;101648.28;5083379;28;45177;-65
2023/03/20 03:32:01;;;;;;;;;20.00;15.00;;;;;10.83;52.54;101653.75;5078840;28;45775;-65
2023/03/20 03:34:27;;;;;;;;;15.75;14.00;;;;;10.81;53.12;101655.47;5086474;28;45339;-65
2023/03/20 03:37:12;;;;;;;;;15.25;14.00;;;;;10.79;52.66;101663.41;5076925;28;45259;-65
2023/03/20 03:39:48;;;;;;;;;15.00;15.00;;;;;10.79;52.88;101657.13;5085502;28;45189;-65
2023/03/20 03:42:32;;;;;;;;;20.00;15.25;;;;;10.80;53.28;101656.28;5081781;28;45804;-65
2023/03/20 03:45:26;;;;;;;;;21.00;17.75;;;;;10.69;53.39;101632.72;5084410;28;45096;-65
2023/03/20 03:47:56;;;;;;;;;22.25;14.00;;;;;10.75;52.94;101650.75;5082484;28;45026;-66
2023/03/20 03:50:31;;;;;;;;;19.00;18.00;;;;;10.72;53.31;101652.41;5081117;27;45189;-65
2023/03/20 03:53:05;;;;;;;;;19.00;14.25;;;;;10.49;53.29;101623.91;5076920;27;45320;-65
2023/03/20 03:55:37;;;;;;;;;19.50;17.75;;;;;10.63;53.62;101644.94;5084372;27;46066;-66
2023/03/20 03:58:11;;;;;;;;;17.50;16.75;;;;;10.64;53.77;101642.31;5081360;27;45087;-64
2023/03/20 04:00:42;;;;;;;;;21.00;16.00;;;;;10.68;53.03;101643.34;5074332;28;45351;-64
2023/03/20 04:03:08;;;;;;;;;18.00;17.50;;;;;10.63;54.04;101642.25;5081034;28;47034;-65
2023/03/20 04:05:36;;;;;;;;;20.75;18.00;;;;;10.63;54.07;101648.50;5083314;28;45137;-65
2023/03/20 04:08:04;;;;;;;;;15.75;14.00;;;;;10.62;53.46;101649.34;5077463;28;45102;-66
2023/03/20 04:10:30;;;;;;;;;21.00;18.75;;;;;10.57;53.81;101639.34;5080181;27;44978;-65
2023/03/20 04:12:55;;;;;;;;;19.00;18.00;;;;;10.59;53.21;101643.91;5082189;28;45574;-65
2023/03/20 04:15:20;;;;;;;;;20.00;12.00;;;;;10.67;52.71;101657.56;5084287;27;45179;-65
2023/03/20 04:17:46;;;;;;;;;12.75;9.50;;;;;10.65;51.90;101653.91;5085854;27;45077;-65
2023/03/20 04:20:12;;;;;;;;;13.25;10.75;;;;;10.65;52.34;101661.94;5084442;28;45099;-66
2023/03/20 04:22:38;;;;;;;;;10.50;9.00;;;;;10.63;52.63;101663.63;5084038;28;46678;-65
2023/03/20 04:25:05;;;;;;;;;7.50;7.50;;;;;10.66;52.61;101677.13;5083872;27;45460;-65
2023/03/20 04:27:31;;;;;;;;;13.25;8.75;;;;;10.59;52.66;101659.94;5078069;27;45236;-65
2023/03/20 04:29:56;;;;;;;;;10.00;10.00;;;;;10.69;52.67;101671.88;5090097;27;45023;-65
2023/03/20 04:32:22;;;;;;;;;9.50;9.50;;;;;10.69;52.78;101669.22;5090567;27;45598;-65
2023/03/20 04:34:47;;;;;;;;;9.50;8.75;;;;;10.73;52.41;101672.94;5086258;28;45046;-65
2023/03/20 04:37:13;;;;;;;;;19.75;19.75;;;;;10.76;52.49;101670.41;5082401;27;45855;-66
2023/03/20 04:39:38;;;;;;;;;12.25;9.75;;;;;10.78;52.42;101666.91;5088782;27;45071;-66
2023/03/20 04:42:04;;;;;;;;;10.25;10.25;;;;;10.69;51.37;101658.53;5085590;27;45748;-66
2023/03/20 04:44:30;;;;;;;;;11.00;11.00;;;;;10.74;51.92;101675.69;5081857;27;45517;-65
2023/03/20 04:46:56;;;;;;;;;10.25;10.25;;;;;10.70;52.33;101669.28;5080325;28;45056;-65
2023/03/20 04:49:21;;;;;;;;;10.75;7.50;;;;;10.66;51.73;101662.00;5084071;28;45033;-65
2023/03/20 04:51:47;;;;;;;;;9.25;9.25;;;;;10.74;52.21;101672.06;5083968;27;45344;-66
2023/03/20 04:54:12;;;;;;;;;12.75;11.75;;;;;10.76;52.21;101670.41;5085399;27;45081;-65
2023/03/20 04:56:37;;;;;;;;;13.00;10.75;;;;;10.69;51.98;101648.75;5081762;28;56097;-66
2023/03/20 04:59:03;;;;;;;;;13.75;10.25;;;;;10.78;52.09;101658.91;5087058;28;45166;-66
2023/03/20 05:01:28;;;;;;;;;14.25;10.25;;;;;10.78;52.29;101658.91;5081007;27;53922;-67
2023/03/20 05:03:59;;;;;;;;;16.50;13.50;;;;;10.80;51.44;101653.63;5085087;27;45732;-66
2023/03/20 05:06:25;;;;;;;;;11.25;9.75;;;;;10.72;52.28;101663.09;5084972;28;45225;-66
2023/03/20 05:08:50;;;;;;;;;15.00;10.00;;;;;10.74;51.67;101662.31;5080218;27;45018;-66
2023/03/20 05:11:16;;;;;;;;;14.00;9.75;;;;;10.77;52.07;101658.84;5078330;28;46239;-66
2023/03/20 05:13:41;;;;;;;;;16.50;10.00;;;;;10.74;52.33;101653.38;5086084;28;45180;-66
2023/03/20 05:16:07;;;;;;;;;15.50;12.00;;;;;10.72;52.02;101655.97;5078338;27;45205;-66
2023/03/20 05:18:32;;;;;;;;;14.50;13.75;;;;;10.78;51.64;101661.56;5081560;28;45102;-66
2023/03/20 05:20:57;;;;;;;;;12.75;10.50;;;;;10.78;52.04;101653.56;5074628;28;45721;-66
2023/03/20 05:23:23;;;;;;;;;9.50;8.25;;;;;10.79;51.68;101663.41;5084486;27;44925;-65
2023/03/20 05:25:48;;;;;;;;;8.25;8.25;;;;;10.73;51.99;101644.44;5087126;28;44970;-66
2023/03/20 05:28:13;;;;;;;;;12.00;9.25;;;;;10.77;51.62;101651.72;5079253;28;45046;-66
2023/03/20 05:30:39;;;;;;;;;11.00;6.00;;;;;10.74;51.58;101651.63;5080014;28;65682;-65
2023/03/20 05:33:04;;;;;;;;;12.75;10.50;;;;;10.70;51.47;101642.53;5083050;27;45122;-65
2023/03/20 05:35:30;;;;;;;;;13.25;10.25;;;;;10.69;51.12;101634.47;5080553;27;45071;-65
2023/03/20 05:37:55;;;;;;;;;11.00;8.00;;;;;10.77;51.44;101656.16;5075483;28;45052;-65
2023/03/20 05:40:23;;;;;;;;;10.00;9.25;;;;;10.67;51.59;101650.47;5074388;28;45577;-65
2023/03/20 05:42:48;;;;;;;;;14.00;11.25;;;;;10.58;51.57;101646.50;5081566;27;45085;-65
2023/03/20 05:45:14;;;;;;;;;8.75;8.75;;;;;10.64;51.37;101657.44;5082766;27;45486;-65
2023/03/20 05:47:39;;;;;;;;;11.00;8.00;;;;;10.62;51.58;101664.47;5079913;28;45185;-65
2023/03/20 05:50:05;;;;;;;;;8.75;8.75;;;;;10.60;51.69;101663.50;5072259;27;46294;-66
2023/03/20 05:52:31;;;;;;;;;13.50;10.75;;;;;10.60;51.90;101663.50;5079999;27;44974;-64
2023/03/20 05:54:56;;;;;;;;;14.00;10.50;;;;;10.66;52.10;101659.31;5077981;28;45594;-66
2023/03/20 05:57:22;;;;;;;;;13.00;11.00;;;;;10.70;52.13;101655.91;5077019;27;45486;-65
2023/03/20 05:59:47;;;;;;;;;9.50;9.25;;;;;10.67;51.88;101649.53;5076236;27;46142;-65
2023/03/20 06:02:13;;;;;;;;;44.25;38.00;;;;;10.70;52.26;101658.59;5071363;28;50143;-64
2023/03/20 06:04:38;;;;;;;;;13.25;9.75;;;;;10.71;51.45;101667.53;5084462;28;45043;-65
2023/03/20 06:07:04;;;;;;;;;12.00;10.00;;;;;10.65;52.14;101654.81;5085809;27;45138;-66
2023/03/20 06:09:29;;;;;;;;;6.75;6.00;;;;;10.69;51.49;101661.19;5076737;28;45494;-66
2023/03/20 06:11:55;;;;;;;;;7.25;6.00;;;;;10.72;51.33;101669.34;5083335;27;45086;-66
2023/03/20 06:14:20;;;;;;;;;6.00;4.75;;;;;10.70;51.07;101655.00;5076513;28;45114;-65
2023/03/20 06:16:46;;;;;;;;;7.25;7.00;;;;;10.72;51.45;101684.47;5081783;28;45089;-66
2023/03/20 06:19:11;;;;;;;;;5.50;4.00;;;;;10.74;50.16;101678.34;5088948;27;45741;-66
2023/03/20 06:21:36;;;;;;;;;5.00;5.00;;;;;10.71;50.78;101680.91;5091656;27;45143;-66
2023/03/20 06:24:02;;;;;;;;;6.75;4.00;;;;;10.66;50.47;101675.34;5079515;28;49295;-66
2023/03/20 06:26:27;;;;;;;;;5.00;5.00;;;;;10.64;50.15;101681.47;5081128;27;45102;-66
2023/03/20 06:28:52;;;;;;;;;9.00;7.50;;;;;10.62;50.73;101675.16;5072872;28;46844;-65
2023/03/20 06:31:18;;;;;;;;;6.00;4.00;;;;;10.63;50.08;101683.25;5085389;27;45113;-65
2023/03/20 06:33:44;;;;;;;;;6.50;4.00;;;;;10.65;50.10;101678.88;5077683;28;45025;-67
2023/03/20 06:36:10;;;;;;;;;3.00;3.00;;;;;10.65;50.01;101672.63;5080048;28;45207;-66
2023/03/20 06:38:35;;;;;;;;;5.00;3.25;;;;;10.36;50.28;101623.31;5082883;28;45914;-64
2023/03/20 06:41:00;;;;;;;;;5.00;5.00;;;;;10.59;49.79;101653.66;5080278;28;45120;-65
2023/03/20 06:43:26;;;;;;;;;3.50;3.00;;;;;10.50;49.80;101640.84;5080426;27;45066;-65
2023/03/20 06:45:51;;;;;;;;;6.75;5.50;;;;;10.62;50.21;101664.47;5080095;27;45126;-65
2023/03/20 06:48:20;;;;;;;;;6.25;4.75;;;;;10.61;50.51;101662.63;5088584;27;45636;-66
2023/03/20 06:50:47;;;;;;;;;5.75;4.25;;;;;10.64;50.41;101669.06;5082369;27;45123;-65
2023/03/20 06:53:13;;;;;;;;;3.00;3.00;;;;;10.66;50.00;101666.44;5071586;28;45525;-65
2023/03/20 06:55:38;;;;;;;;;4.25;4.25;;;;;10.67;49.50;101671.84;5086610;28;45125;-65
2023/03/20 06:58:04;;;;;;;;;4.50;3.00;;;;;10.67;49.76;101665.56;5087743;28;47723;-65
2023/03/20 07:00:29;;;;;;;;;6.00;4.75;;;;;10.63;49.87;101659.19;5099826;27;45308;-66
2023/03/20 07:02:54;;;;;;;;;5.25;5.25;;;;;10.55;49.42;101649.94;5091942;27;45196;-66
2023/03/20 07:05:20;;;;;;;;;9.00;7.00;;;;;10.64;49.44;101676.13;5081515;27;46069;-67
2023/03/20 07:07:45;;;;;;;;;5.75;5.00;;;;;10.68;49.52;101675.44;5087265;28;46788;-65
2023/03/20 07:10:11;;;;;;;;;4.75;4.75;;;;;10.47;49.57;101649.63;5077899;28;45153;-66
2023/03/20 07:12:37;;;;;;;;;4.75;4.75;;;;;10.73;49.61;101689.88;5069675;28;45210;-67
2023/03/20 07:15:03;;;;;;;;;6.00;4.25;;;;;10.78;48.83;101687.41;5083359;28;45196;-66
2023/03/20 07:17:28;;;;;;;;;3.75;3.50;;;;;10.82;48.99;101690.28;5077414;27;45807;-66
2023/03/20 07:19:53;;;;;;;;;4.00;4.00;;;;;10.84;49.25;101693.91;5078470;27;46186;-67
2023/03/20 07:22:24;;;;;;;;;6.50;5.75;;;;;10.82;49.23;101679.59;5084317;28;44997;-67
2023/03/20 07:24:50;;;;;;;;;5.25;4.00;;;;;10.94;48.91;101691.59;5080719;28;45272;-66
2023/03/20 07:27:16;;;;;;;;;9.25;5.50;;;;;10.86;48.53;101661.91;5078171;27;45341;-67
2023/03/20 07:29:42;;;;;;;;;7.50;5.00;;;;;11.00;48.32;101675.78;5087100;27;45252;-66
2023/03/20 07:32:07;;;;;;;;;9.00;6.00;;;;;11.11;48.72;101687.84;5083173;28;44985;-66
2023/03/20 07:34:33;;;;;;;;;4.00;2.50;;;;;11.17;48.07;101688.09;5090443;27;45174;-67
2023/03/20 07:36:58;;;;;;;;;8.00;6.25;;;;;11.20;48.55;101688.19;5083291;27;45394;-66
2023/03/20 07:39:24;;;;;;;;;5.50;5.50;;;;;11.23;47.80;101692.75;5088812;28;45421;-66
2023/03/20 07:41:50;;;;;;;;;8.00;5.25;;;;;11.30;47.51;101693.88;5088417;27;45137;-66
2023/03/20 07:44:18;;;;;;;;;3.00;3.00;;;;;11.27;47.71;101685.75;5091402;27;45256;-67
2023/03/20 07:46:45;;;;;;;;;9.50;5.50;;;;;11.27;47.84;101689.34;5081984;28;45508;-66
2023/03/20 07:49:14;;;;;;;;;6.00;5.25;;;;;11.29;47.91;101686.75;5083100;28;45660;-67
2023/03/20 07:51:39;;;;;;;;;11.00;6.25;;;;;11.33;47.81;101691.34;5075223;28;45642;-66
2023/03/20 07:54:05;;;;;;;;;7.75;7.75;;;;;11.35;47.32;101682.53;5092753;28;45337;-66
2023/03/20 07:56:30;;;;;;;;;10.00;7.00;;;;;11.37;47.95;101678.13;5082501;27;45639;-65
2023/03/20 07:58:55;;;;;;;;;8.75;5.00;;;;;11.31;47.69;101667.19;5083986;28;45170;-66
2023/03/20 08:01:21;;;;;;;;;7.25;4.25;;;;;11.46;47.68;101684.69;5073836;28;47015;-66
2023/03/20 08:03:46;;;;;;;;;3.75;3.50;;;;;11.43;47.59;101669.41;5079430;28;45369;-66
2023/03/20 08:06:12;;;;;;;;;2.75;2.75;;;;;11.51;47.54;101673.28;5076968;28;46055;-66
2023/03/20 08:08:37;;;;;;;;;4.00;4.00;;;;;11.49;47.57;101664.31;5086148;27;45173;-66
2023/03/20 08:11:03;;;;;;;;;4.50;4.50;;;;;11.68;46.92;101686.41;5082327;28;45052;-67
2023/03/20 08:13:28;;;;;;;;;6.50;3.50;;;;;11.66;47.15;101677.41;5091600;28;45171;-65
2023/03/20 08:15:53;;;;;;;;;7.00;4.00;;;;;11.65;47.83;101679.19;5091088;27;56955;-65
2023/03/20 08:18:21;;;;;;;;;5.00;5.00;;;;;11.75;47.45;101680.44;5091220;28;45183;-66
2023/03/20 08:20:48;;;;;;;;;3.00;2.50;;;;;11.83;47.35;101695.00;5077134;27;45176;-66
2023/03/20 08:23:17;;;;;;;;;7.00;3.50;;;;;11.79;47.73;101679.69;5090324;28;45246;-67
2023/03/20 08:25:49;;;;;;;;;9.50;8.75;;;;;11.89;47.15;101695.22;5090256;27;45513;-67
2023/03/20 08:28:15;;;;;;;;;5.00;4.50;;;;;11.95;47.43;101691.91;5091991;27;44998;-65
2023/03/20 08:30:41;;;;;;;;;3.75;3.25;;;;;11.96;46.74;101691.94;5092134;27;45103;-66
2023/03/20 08:33:06;;;;;;;;;4.00;4.00;;;;;12.02;46.46;101703.75;5091962;27;45376;-65
2023/03/20 08:35:31;;;;;;;;;5.50;4.00;;;;;11.97;47.53;101696.44;5091823;28;45620;-66
2023/03/20 08:37:57;;;;;;;;;9.00;5.00;;;;;11.98;47.49;101700.94;5091379;27;45042;-64
2023/03/20 08:40:22;;;;;;;;;7.00;4.50;;;;;12.03;47.15;101713.56;5092338;27;45225;-66
2023/03/20 08:42:48;;;;;;;;;4.00;4.00;;;;;12.01;47.99;101713.56;5086443;27;45257;-66
2023/03/20 08:45:14;;;;;;;;;4.50;3.25;;;;;12.08;47.13;101714.69;5080837;28;45762;-65
2023/03/20 08:47:39;;;;;;;;;3.25;3.25;;;;;12.08;47.41;101717.34;5087190;27;45726;-66
2023/03/20 08:50:06;;;;;;;;;7.25;5.00;;;;;12.06;47.49;101705.66;5088432;27;44974;-68
2023/03/20 08:52:31;;;;;;;;;10.50;5.25;;;;;12.23;46.91;101722.34;5086704;27;45262;-65
2023/03/20 08:54:57;;;;;;;;;7.00;2.00;;;;;12.29;47.46;101715.44;5083857;28;45578;-67
2023/03/20 08:57:22;;;;;;;;;9.50;8.25;;;;;12.37;46.82;101717.44;5087733;28;55709;-67
2023/03/20 08:59:47;;;;;;;;;5.00;5.00;;;;;12.35;48.21;101712.03;5089101;27;45442;-65
2023/03/20 09:02:13;;;;;;;;;7.50;7.50;;;;;12.42;47.09;101705.13;5089599;28;45267;-67
2023/03/20 09:04:38;;;;;;;;;7.25;5.25;;;;;12.52;47.21;101712.59;5083519;27;45713;-66
2023/03/20 09:07:04;;;;;;;;;9.75;5.50;;;;;12.58;47.42;101704.78;5073566;28;45358;-64
2023/03/20 09:09:29;;;;;;;;;11.75;7.75;;;;;12.64;47.45;101696.06;5080449;28;45431;-65
2023/03/20 09:11:56;;;;;;;;;9.50;4.25;;;;;12.78;47.41;101704.53;5082311;28;45782;-66
2023/03/20 09:14:22;;;;;;;;;6.25;5.50;;;;;12.87;47.28;101705.75;5080647;27;46107;-66
2023/03/20 09:16:48;;;;;;;;;5.00;5.00;;;;;12.81;47.06;101684.09;5077355;27;45382;-65
2023/03/20 09:19:14;;;;;;;;;5.50;4.00;;;;;13.06;46.73;101692.91;5079939;28;45097;-65
2023/03/20 09:21:39;;;;;;;;;11.75;10.00;;;;;13.15;46.96;101685.16;5078032;28;45265;-67
2023/03/20 09:24:05;;;;;;;;;5.75;5.00;;;;;13.24;46.72;101692.56;5085983;28;45303;-67
2023/03/20 09:26:30;;;;;;;;;3.33;2.00;;;;;13.24;46.70;101673.78;5087659;27;45518;-67
2023/03/20 09:28:56;;;;;;;;;4.00;2.00;;;;;13.25;46.17;101660.44;5082173;27;45303;-67
2023/03/20 09:31:22;;;;;;;;;6.00;4.67;;;;;13.45;46.76;101676.25;5081616;28;45433;-66
2023/03/20 09:33:47;;;;;;;;;6.33;3.33;;;;;13.46;46.75;101664.63;5077523;27;45640;-65
2023/03/20 09:36:14;;;;;;;;;5.00;2.67;;;;;13.53;46.72;101657.66;5075372;27;45566;-66
2023/03/20 09:38:41;;;;;;;;;7.67;3.67;;;;;13.70;46.44;101675.19;5086474;28;45424;-71
2023/03/20 09:41:18;;;;;;;;;4.33;4.33;;;;;13.78;46.12;101664.66;5083596;27;45617;-67
2023/03/20 09:43:56;;;;;;;;;8.67;4.00;;;;;13.91;46.32;101668.56;5066895;27;46370;-67
2023/03/20 09:46:58;;;;;;;;;7.67;5.00;;;;;13.97;46.13;101669.69;5083798;28;45456;-67
2023/03/20 09:49:48;;;;;;;;;4.00;2.00;;;;;14.03;45.95;101678.78;5063330;28;45484;-67
2023/03/20 09:52:26;;;;;;;;;7.33;3.67;;;;;14.11;46.09;101679.88;5073199;28;45591;-68
2023/03/20 09:54:59;;;;;;;;;6.67;4.00;;;;;14.15;45.87;101673.72;5085355;27;45323;-68
2023/03/20 09:57:27;;;;;;;;;5.00;4.00;;;;;14.25;45.77;101680.25;5068593;28;45570;-68
2023/03/20 10:00:07;;;;;;;;;8.00;6.00;;;;;14.34;44.98;101683.19;5076451;27;45381;-68
2023/03/20 10:02:40;;;;;;;;;6.33;3.67;;;;;14.41;44.88;101679.75;5084007;28;45397;-68
2023/03/20 10:05:18;;;;;;;;;4.00;2.00;;;;;14.42;44.58;101678.91;5089437;28;46222;-67
2023/03/20 10:07:44;;;;;;;;;7.67;3.00;;;;;14.41;44.41;101671.69;5086474;28;45282;-69
2023/03/20 10:10:14;;;;;;;;;3.00;2.67;;;;;14.45;43.85;101678.06;5091840;28;45192;-68
2023/03/20 10:12:50;;;;;;;;;4.33;3.00;;;;;14.46;44.24;101675.41;5089701;27;45162;-67
2023/03/20 10:15:20;;;;;;;;;10.00;6.33;;;;;14.50;44.77;101669.25;5067906;27;45521;-69
2023/03/20 10:18:17;;;;;;;;;4.33;4.00;;;;;14.54;44.10;101676.50;5081684;27;45369;-70
2023/03/20 10:20:45;;;;;;;;;2.67;2.67;;;;;14.60;44.10;101669.50;5065693;27;45453;-67
2023/03/20 10:23:35;;;;;;;;;4.00;3.00;;;;;14.56;44.28;101672.06;5067998;27;45505;-68
2023/03/20 10:26:13;;;;;;;;;6.33;4.00;;;;;14.55;44.50;101664.91;5079402;27;46274;-68
2023/03/20 10:28:50;;;;;;;;;6.33;4.67;;;;;14.60;44.27;101667.75;5087968;27;44916;-69
2023/03/20 10:31:40;;;;;;;;;3.00;3.00;;;;;14.62;44.15;101670.44;5083971;27;45501;-67
2023/03/20 10:34:48;;;;;;;;;5.33;3.67;;;;;14.68;44.10;101660.78;5079995;27;45474;-68
2023/03/20 10:37:40;;;;;;;;;17.00;12.50;;;;;14.77;44.26;101657.38;5088103;27;45311;-68
2023/03/20 10:40:34;;;;;;;;;4.00;4.00;;;;;14.82;43.94;101662.88;5071512;27;45472;-68
2023/03/20 10:43:03;;;;;;;;;5.33;3.00;;;;;14.89;44.02;101652.28;5077389;27;45511;-68
2023/03/20 10:45:32;;;;;;;;;6.67;3.33;;;;;15.01;43.77;101658.81;5076834;27;45490;-67
2023/03/20 10:48:01;;;;;;;;;7.00;4.00;;;;;15.03;43.48;101663.38;5083198;27;45519;-67
2023/03/20 10:50:36;;;;;;;;;5.00;5.00;;;;;15.11;43.30;101655.44;5068150;27;45560;-67
2023/03/20 10:53:03;;;;;;;;;5.67;5.00;;;;;15.14;42.94;101654.63;5074941;27;45801;-68
2023/03/20 10:55:35;;;;;;;;;5.67;4.67;;;;;15.16;43.07;101660.94;5078080;27;45389;-71
2023/03/20 10:58:16;;;;;;;;;4.00;4.00;;;;;15.19;42.93;101656.53;5072929;27;45692;-71
2023/03/20 11:00:42;;;;;;;;;7.00;2.33;;;;;15.24;42.74;101640.47;5065144;27;45577;-72
2023/03/20 11:03:19;;;;;;;;;3.67;3.00;;;;;15.36;42.92;101637.13;5074231;27;45455;-72
2023/03/20 11:05:45;;;;;;;;;6.00;4.00;;;;;15.34;42.59;101620.03;5069765;27;45487;-74
2023/03/20 11:08:12;;;;;;;;;4.00;4.00;;;;;15.57;42.67;101637.56;5071992;27;45604;-71
2023/03/20 11:10:41;;;;;;;;;7.00;4.00;;;;;15.64;42.16;101630.53;5067670;27;45521;-70
2023/03/20 11:13:35;;;;;;;;;8.67;8.00;;;;;15.71;42.41;101626.19;5072977;27;45670;-70
2023/03/20 11:16:18;;;;;;;;;5.00;5.00;;;;;15.75;42.34;101623.56;5068687;27;45819;-69
2023/03/20 11:18:45;;;;;;;;;11.00;9.33;;;;;15.84;42.28;101614.81;5068144;27;46483;-70
2023/03/20 11:21:17;;;;;;;;;11.00;9.00;;;;;15.95;42.25;101617.69;5071465;27;45449;-70
2023/03/20 11:23:42;;;;;;;;;7.00;3.00;;;;;16.05;41.97;101613.34;5068286;27;45500;-70
2023/03/20 11:26:15;;;;;;;;;5.00;2.67;;;;;16.03;41.27;101595.34;5065067;27;45515;-69
2023/03/20 11:28:47;;;;;;;;;4.67;3.67;;;;;16.08;41.52;101599.94;5067354;27;46412;-69
2023/03/20 11:31:12;;;;;;;;;7.67;5.33;;;;;16.12;42.23;101607.19;5063865;28;45576;-69
2023/03/20 11:33:41;;;;;;;;;6.00;5.33;;;;;16.11;41.71;101608.97;5069235;27;45488;-71
2023/03/20 11:36:20;;;;;;;;;11.33;7.33;;;;;16.12;41.95;101612.56;5081267;27;45056;-70